sensor_id;sensor_type;location;lat;lon;timestamp;temperature;humidity
24614;DHT22;12760;46.296;25.290;2022-09-17T00:01:15;18.10;99.90
24614;DHT22;12760;46.296;25.290;2022-09-17T00:03:42;18.00;99.90
24614;DHT22;12760;46.296;25.290;2022-09-17T00:06:10;18.00;99.90
24614;DHT22;12760;46.296;25.290;2022-09-17T00:08:38;18.10;99.90
24614;DHT22;12760;46.296;25.290;2022-09-17T00:11:06;18.10;99.90
24614;DHT22;12760;46.296;25.290;2022-09-17T00:13:32;18.10;99.90
24614;DHT22;12760;46.296;25.290;2022-09-17T00:15:58;18.20;99.90
24614;DHT22;12760;46.296;25.290;2022-09-17T00:18:24;18.30;99.90
24614;DHT22;12760;46.296;25.290;2022-09-17T00:20:50;18.30;99.90
24614;DHT22;12760;46.296;25.290;2022-09-17T00:23:15;18.20;99.90
24614;DHT22;12760;46.296;25.290;2022-09-17T00:25:43;18.20;99.90
24614;DHT22;12760;46.296;25.290;2022-09-17T00:28:10;18.30;99.90
24614;DHT22;12760;46.296;25.290;2022-09-17T00:30:40;18.40;99.90
24614;DHT22;12760;46.296;25.290;2022-09-17T00:33:06;18.30;99.90
24614;DHT22;12760;46.296;25.290;2022-09-17T00:35:32;18.20;99.90
24614;DHT22;12760;46.296;25.290;2022-09-17T00:37:58;18.20;99.90
24614;DHT22;12760;46.296;25.290;2022-09-17T00:40:24;18.20;99.90
24614;DHT22;12760;46.296;25.290;2022-09-17T00:42:49;18.20;99.90
24614;DHT22;12760;46.296;25.290;2022-09-17T00:45:18;18.20;99.90
24614;DHT22;12760;46.296;25.290;2022-09-17T00:48:04;18.20;99.90
24614;DHT22;12760;46.296;25.290;2022-09-17T00:50:37;18.20;99.90
24614;DHT22;12760;46.296;25.290;2022-09-17T00:53:10;18.20;99.90
24614;DHT22;12760;46.296;25.290;2022-09-17T00:55:46;18.20;99.90
24614;DHT22;12760;46.296;25.290;2022-09-17T00:58:15;18.20;99.90
24614;DHT22;12760;46.296;25.290;2022-09-17T01:00:41;18.20;99.90
24614;DHT22;12760;46.296;25.290;2022-09-17T01:03:07;18.10;99.90
24614;DHT22;12760;46.296;25.290;2022-09-17T01:06:08;18.10;99.90
24614;DHT22;12760;46.296;25.290;2022-09-17T01:16:57;18.10;99.90
24614;DHT22;12760;46.296;25.290;2022-09-17T01:22:13;18.10;99.90
24614;DHT22;12760;46.296;25.290;2022-09-17T01:24:54;18.00;99.90
24614;DHT22;12760;46.296;25.290;2022-09-17T01:38:52;18.00;99.90
24614;DHT22;12760;46.296;25.290;2022-09-17T01:45:08;18.00;99.90
24614;DHT22;12760;46.296;25.290;2022-09-17T01:47:36;18.10;99.90
24614;DHT22;12760;46.296;25.290;2022-09-17T01:50:16;18.10;99.90
24614;DHT22;12760;46.296;25.290;2022-09-17T01:52:46;18.00;99.90
24614;DHT22;12760;46.296;25.290;2022-09-17T01:55:15;17.90;99.90
24614;DHT22;12760;46.296;25.290;2022-09-17T01:57:50;17.90;99.90
24614;DHT22;12760;46.296;25.290;2022-09-17T02:00:18;17.90;99.90
24614;DHT22;12760;46.296;25.290;2022-09-17T02:03:16;17.90;99.90
24614;DHT22;12760;46.296;25.290;2022-09-17T02:05:49;17.90;99.90
24614;DHT22;12760;46.296;25.290;2022-09-17T02:08:23;18.00;99.90
24614;DHT22;12760;46.296;25.290;2022-09-17T02:11:11;18.00;99.90
24614;DHT22;12760;46.296;25.290;2022-09-17T02:13:53;17.90;99.90
24614;DHT22;12760;46.296;25.290;2022-09-17T02:16:27;17.90;99.90
24614;DHT22;12760;46.296;25.290;2022-09-17T02:27:07;18.00;99.90
24614;DHT22;12760;46.296;25.290;2022-09-17T02:29:38;18.00;99.90
24614;DHT22;12760;46.296;25.290;2022-09-17T02:32:06;18.00;99.90
24614;DHT22;12760;46.296;25.290;2022-09-17T02:34:32;17.90;99.90
24614;DHT22;12760;46.296;25.290;2022-09-17T02:36:59;17.90;99.90
24614;DHT22;12760;46.296;25.290;2022-09-17T02:39:25;17.90;99.90
24614;DHT22;12760;46.296;25.290;2022-09-17T02:45:13;17.90;99.90
24614;DHT22;12760;46.296;25.290;2022-09-17T02:53:30;18.00;99.90
24614;DHT22;12760;46.296;25.290;2022-09-17T02:59:11;18.00;99.90
24614;DHT22;12760;46.296;25.290;2022-09-17T03:02:19;18.00;99.90
24614;DHT22;12760;46.296;25.290;2022-09-17T03:04:46;18.00;99.90
24614;DHT22;12760;46.296;25.290;2022-09-17T03:07:13;17.90;99.90
24614;DHT22;12760;46.296;25.290;2022-09-17T03:09:40;17.90;99.90
24614;DHT22;12760;46.296;25.290;2022-09-17T03:12:08;17.80;99.90
24614;DHT22;12760;46.296;25.290;2022-09-17T03:14:34;17.70;99.90
24614;DHT22;12760;46.296;25.290;2022-09-17T03:17:00;17.70;99.90
24614;DHT22;12760;46.296;25.290;2022-09-17T03:19:26;17.70;99.90
24614;DHT22;12760;46.296;25.290;2022-09-17T03:21:52;17.80;99.90
24614;DHT22;12760;46.296;25.290;2022-09-17T03:24:18;17.80;99.90
24614;DHT22;12760;46.296;25.290;2022-09-17T03:26:44;17.90;99.90
24614;DHT22;12760;46.296;25.290;2022-09-17T03:29:12;18.00;99.90
24614;DHT22;12760;46.296;25.290;2022-09-17T03:31:38;18.00;99.90
24614;DHT22;12760;46.296;25.290;2022-09-17T03:34:04;18.00;99.90
24614;DHT22;12760;46.296;25.290;2022-09-17T03:36:29;18.00;99.90
24614;DHT22;12760;46.296;25.290;2022-09-17T03:38:56;18.00;99.90
24614;DHT22;12760;46.296;25.290;2022-09-17T03:41:22;18.00;99.90
24614;DHT22;12760;46.296;25.290;2022-09-17T03:43:48;18.10;99.90
24614;DHT22;12760;46.296;25.290;2022-09-17T03:46:13;18.00;99.90
24614;DHT22;12760;46.296;25.290;2022-09-17T03:48:39;18.00;99.90
24614;DHT22;12760;46.296;25.290;2022-09-17T03:51:05;17.90;99.90
24614;DHT22;12760;46.296;25.290;2022-09-17T03:53:32;17.90;99.90
24614;DHT22;12760;46.296;25.290;2022-09-17T03:55:59;17.90;99.90
24614;DHT22;12760;46.296;25.290;2022-09-17T03:58:25;17.80;99.90
24614;DHT22;12760;46.296;25.290;2022-09-17T04:00:51;17.70;99.90
24614;DHT22;12760;46.296;25.290;2022-09-17T04:03:19;17.70;99.90
24614;DHT22;12760;46.296;25.290;2022-09-17T04:05:46;17.70;99.90
24614;DHT22;12760;46.296;25.290;2022-09-17T04:08:12;17.70;99.90
24614;DHT22;12760;46.296;25.290;2022-09-17T04:10:37;17.60;99.90
24614;DHT22;12760;46.296;25.290;2022-09-17T04:13:03;17.50;99.90
24614;DHT22;12760;46.296;25.290;2022-09-17T04:15:29;17.40;99.90
24614;DHT22;12760;46.296;25.290;2022-09-17T04:17:55;17.40;99.90
24614;DHT22;12760;46.296;25.290;2022-09-17T04:20:24;17.40;99.90
24614;DHT22;12760;46.296;25.290;2022-09-17T04:22:50;17.40;99.90
24614;DHT22;12760;46.296;25.290;2022-09-17T04:25:16;17.60;99.90
24614;DHT22;12760;46.296;25.290;2022-09-17T04:27:43;17.60;99.90
24614;DHT22;12760;46.296;25.290;2022-09-17T04:30:09;17.60;99.90
24614;DHT22;12760;46.296;25.290;2022-09-17T04:32:35;17.60;99.90
24614;DHT22;12760;46.296;25.290;2022-09-17T04:35:00;17.70;99.90
24614;DHT22;12760;46.296;25.290;2022-09-17T04:37:26;17.70;99.90
24614;DHT22;12760;46.296;25.290;2022-09-17T04:39:52;17.70;99.90
24614;DHT22;12760;46.296;25.290;2022-09-17T04:42:18;17.70;99.90
24614;DHT22;12760;46.296;25.290;2022-09-17T04:44:43;17.80;99.90
24614;DHT22;12760;46.296;25.290;2022-09-17T04:47:09;17.80;99.90
24614;DHT22;12760;46.296;25.290;2022-09-17T04:49:35;17.90;99.90
24614;DHT22;12760;46.296;25.290;2022-09-17T04:52:00;17.90;99.90
24614;DHT22;12760;46.296;25.290;2022-09-17T04:54:26;17.90;99.90
24614;DHT22;12760;46.296;25.290;2022-09-17T04:56:52;17.90;99.90
24614;DHT22;12760;46.296;25.290;2022-09-17T04:59:18;18.00;99.90
24614;DHT22;12760;46.296;25.290;2022-09-17T05:01:43;18.00;99.90
24614;DHT22;12760;46.296;25.290;2022-09-17T05:04:10;18.00;99.90
24614;DHT22;12760;46.296;25.290;2022-09-17T05:06:35;18.00;99.90
24614;DHT22;12760;46.296;25.290;2022-09-17T05:09:01;17.90;99.90
24614;DHT22;12760;46.296;25.290;2022-09-17T05:11:27;18.00;99.90
24614;DHT22;12760;46.296;25.290;2022-09-17T05:13:54;18.00;99.90
24614;DHT22;12760;46.296;25.290;2022-09-17T05:16:19;18.10;99.90
24614;DHT22;12760;46.296;25.290;2022-09-17T05:18:45;18.20;99.90
24614;DHT22;12760;46.296;25.290;2022-09-17T05:21:12;18.20;99.90
24614;DHT22;12760;46.296;25.290;2022-09-17T05:23:38;18.20;99.90
24614;DHT22;12760;46.296;25.290;2022-09-17T05:26:04;18.30;99.90
24614;DHT22;12760;46.296;25.290;2022-09-17T05:28:30;18.30;99.90
24614;DHT22;12760;46.296;25.290;2022-09-17T05:30:59;18.30;99.90
24614;DHT22;12760;46.296;25.290;2022-09-17T05:33:24;18.20;99.90
24614;DHT22;12760;46.296;25.290;2022-09-17T05:35:50;18.20;99.90
24614;DHT22;12760;46.296;25.290;2022-09-17T05:38:16;18.20;99.90
24614;DHT22;12760;46.296;25.290;2022-09-17T05:40:44;18.10;99.90
24614;DHT22;12760;46.296;25.290;2022-09-17T05:43:10;18.10;99.90
24614;DHT22;12760;46.296;25.290;2022-09-17T05:45:36;18.00;99.90
24614;DHT22;12760;46.296;25.290;2022-09-17T05:48:04;18.10;99.90
24614;DHT22;12760;46.296;25.290;2022-09-17T05:50:31;18.10;99.90
24614;DHT22;12760;46.296;25.290;2022-09-17T05:53:02;18.20;99.90
24614;DHT22;12760;46.296;25.290;2022-09-17T05:55:28;18.20;99.90
24614;DHT22;12760;46.296;25.290;2022-09-17T05:57:54;18.30;99.90
24614;DHT22;12760;46.296;25.290;2022-09-17T06:00:20;18.20;99.90
24614;DHT22;12760;46.296;25.290;2022-09-17T06:02:45;18.20;99.90
24614;DHT22;12760;46.296;25.290;2022-09-17T06:05:11;18.20;99.90
24614;DHT22;12760;46.296;25.290;2022-09-17T06:07:37;18.20;99.90
24614;DHT22;12760;46.296;25.290;2022-09-17T06:10:04;18.20;99.90
24614;DHT22;12760;46.296;25.290;2022-09-17T06:12:31;18.30;99.90
24614;DHT22;12760;46.296;25.290;2022-09-17T06:14:57;18.20;99.90
24614;DHT22;12760;46.296;25.290;2022-09-17T06:17:22;18.30;99.90
24614;DHT22;12760;46.296;25.290;2022-09-17T06:19:48;18.30;99.90
24614;DHT22;12760;46.296;25.290;2022-09-17T06:22:16;18.30;99.90
24614;DHT22;12760;46.296;25.290;2022-09-17T06:24:42;18.30;99.90
24614;DHT22;12760;46.296;25.290;2022-09-17T06:27:07;18.30;99.90
24614;DHT22;12760;46.296;25.290;2022-09-17T06:29:33;18.20;99.90
24614;DHT22;12760;46.296;25.290;2022-09-17T06:31:59;18.30;99.90
24614;DHT22;12760;46.296;25.290;2022-09-17T06:34:27;18.30;99.90
24614;DHT22;12760;46.296;25.290;2022-09-17T06:36:52;18.30;99.90
24614;DHT22;12760;46.296;25.290;2022-09-17T06:39:18;18.30;99.90
24614;DHT22;12760;46.296;25.290;2022-09-17T06:41:44;18.20;99.90
24614;DHT22;12760;46.296;25.290;2022-09-17T06:44:10;18.20;99.90
24614;DHT22;12760;46.296;25.290;2022-09-17T06:46:36;18.20;99.90
24614;DHT22;12760;46.296;25.290;2022-09-17T06:49:02;18.20;99.90
24614;DHT22;12760;46.296;25.290;2022-09-17T06:51:27;18.20;99.90
24614;DHT22;12760;46.296;25.290;2022-09-17T06:53:53;18.20;99.90
24614;DHT22;12760;46.296;25.290;2022-09-17T06:56:19;18.20;99.90
24614;DHT22;12760;46.296;25.290;2022-09-17T06:58:44;18.30;99.90
24614;DHT22;12760;46.296;25.290;2022-09-17T07:01:11;18.30;99.90
24614;DHT22;12760;46.296;25.290;2022-09-17T07:03:38;18.40;99.90
24614;DHT22;12760;46.296;25.290;2022-09-17T07:06:06;18.40;99.90
24614;DHT22;12760;46.296;25.290;2022-09-17T07:08:34;18.50;99.90
24614;DHT22;12760;46.296;25.290;2022-09-17T07:11:00;18.60;99.90
24614;DHT22;12760;46.296;25.290;2022-09-17T07:13:26;18.60;99.90
24614;DHT22;12760;46.296;25.290;2022-09-17T07:15:56;18.60;99.90
24614;DHT22;12760;46.296;25.290;2022-09-17T07:18:22;18.60;99.90
24614;DHT22;12760;46.296;25.290;2022-09-17T07:20:59;18.60;99.90
24614;DHT22;12760;46.296;25.290;2022-09-17T07:23:27;18.70;99.90
24614;DHT22;12760;46.296;25.290;2022-09-17T07:26:00;18.70;99.90
24614;DHT22;12760;46.296;25.290;2022-09-17T07:28:27;18.80;99.90
24614;DHT22;12760;46.296;25.290;2022-09-17T07:30:53;18.80;99.90
24614;DHT22;12760;46.296;25.290;2022-09-17T07:33:22;18.80;99.90
24614;DHT22;12760;46.296;25.290;2022-09-17T07:35:56;18.80;99.90
24614;DHT22;12760;46.296;25.290;2022-09-17T07:38:22;18.90;99.90
24614;DHT22;12760;46.296;25.290;2022-09-17T07:41:15;18.80;99.90
24614;DHT22;12760;46.296;25.290;2022-09-17T07:43:42;18.90;99.90
24614;DHT22;12760;46.296;25.290;2022-09-17T07:46:18;18.90;99.90
24614;DHT22;12760;46.296;25.290;2022-09-17T07:48:45;18.90;99.90
24614;DHT22;12760;46.296;25.290;2022-09-17T07:51:22;18.90;99.90
24614;DHT22;12760;46.296;25.290;2022-09-17T07:53:52;18.80;99.90
24614;DHT22;12760;46.296;25.290;2022-09-17T07:56:18;18.90;99.90
24614;DHT22;12760;46.296;25.290;2022-09-17T07:58:44;18.80;99.90
24614;DHT22;12760;46.296;25.290;2022-09-17T08:01:11;18.70;99.90
24614;DHT22;12760;46.296;25.290;2022-09-17T08:03:38;18.70;99.90
24614;DHT22;12760;46.296;25.290;2022-09-17T08:06:12;18.60;99.90
24614;DHT22;12760;46.296;25.290;2022-09-17T08:08:39;18.60;99.90
24614;DHT22;12760;46.296;25.290;2022-09-17T08:11:07;18.70;99.90
24614;DHT22;12760;46.296;25.290;2022-09-17T08:13:33;18.70;99.90
24614;DHT22;12760;46.296;25.290;2022-09-17T08:16:00;18.80;99.90
24614;DHT22;12760;46.296;25.290;2022-09-17T08:18:27;18.80;99.90
24614;DHT22;12760;46.296;25.290;2022-09-17T08:21:01;18.80;99.90
24614;DHT22;12760;46.296;25.290;2022-09-17T08:23:28;18.70;99.90
24614;DHT22;12760;46.296;25.290;2022-09-17T08:25:55;18.60;99.90
24614;DHT22;12760;46.296;25.290;2022-09-17T08:28:22;18.70;99.90
24614;DHT22;12760;46.296;25.290;2022-09-17T08:30:50;18.70;99.90
24614;DHT22;12760;46.296;25.290;2022-09-17T08:33:16;18.80;99.90
24614;DHT22;12760;46.296;25.290;2022-09-17T08:35:53;18.80;99.90
24614;DHT22;12760;46.296;25.290;2022-09-17T08:38:19;18.70;99.90
24614;DHT22;12760;46.296;25.290;2022-09-17T08:46:24;18.70;99.90
24614;DHT22;12760;46.296;25.290;2022-09-17T08:55:14;18.70;99.90
24614;DHT22;12760;46.296;25.290;2022-09-17T09:00:12;18.70;99.90
24614;DHT22;12760;46.296;25.290;2022-09-17T09:18:35;18.40;99.90
24614;DHT22;12760;46.296;25.290;2022-09-17T09:23:53;18.70;99.90
24614;DHT22;12760;46.296;25.290;2022-09-17T09:29:21;18.70;99.90
24614;DHT22;12760;46.296;25.290;2022-09-17T09:34:59;18.80;99.90
24614;DHT22;12760;46.296;25.290;2022-09-17T09:37:33;18.80;99.90
24614;DHT22;12760;46.296;25.290;2022-09-17T09:40:36;18.80;99.90
24614;DHT22;12760;46.296;25.290;2022-09-17T09:43:15;18.80;99.90
24614;DHT22;12760;46.296;25.290;2022-09-17T09:45:55;18.80;99.90
